OMSJ/SHJ METAR and TAF weather

Enter ICAO airport designator
Station Type Date Time Source
OMSJ METAR 2023/12/11 13:00 UTC NOAA

OMSJ 111300Z 34008KT CAVOK 26/10 Q1015 NOSIG


Station Type Date Time Source
OMSJ Decoded METAR 2023/12/11 13:00 UTC NOAA

Sharjah International Airport, United Arab Emirates (OMSJ) 25-20N 055-31E 33M
Dec 11, 2023 - 08:00 AM EST / 2023.12.11 1300 UTC
Wind: from the NNW (340 degrees) at 9 MPH (8 KT):0
Visibility: greater than 7 mile(s):0
Temperature: 78 F (26 C)
Dew Point: 50 F (10 C)
Relative Humidity: 36%
Pressure (altimeter): 29.97 in. Hg (1015 hPa)
ob: OMSJ 111300Z 34008KT CAVOK 26/10 Q1015 NOSIG
cycle: 13

Station Type Date Time Source
OMSJ TAF 2023/12/11 12:03 UTC NOAA

TAF OMSJ 111100Z 1112/1218 33010KT CAVOK
BECMG 1116/1118 16005KT PROB30 1123/1205 3000 HZ
BECMG 1208/1210 33010KT

Example: see airport list